Time;durP1;ratioP1;P1;durP2;ratioP2;P2;SDS_P1;SDS_P2;PMS_P1;PMS_P2;Temp;Humidity;BMP_temperature;BMP_pressure;BME280_temperature;BME280_humidity;BME280_pressure;Samples;Min_cycle;Max_cycle;Signal;HPM_P1;HPM_P2
2022/10/05 05:46:39;;;;;;;;;4.00;4.00;;;;;14.76;83.91;101577.34;5972774;23;47803;31
2022/10/05 05:49:32;;;;;;;;;5.00;3.50;;;;;14.74;83.85;101573.78;4878820;29;49906;-72
2022/10/05 05:52:03;;;;;;;;;6.25;3.25;;;;;14.57;83.54;101551.47;4907980;28;50092;-73
2022/10/05 05:54:34;;;;;;;;;4.00;3.75;;;;;14.70;82.89;101579.00;4908751;28;50083;-69
2022/10/05 05:57:22;;;;;;;;;4.25;4.00;;;;;14.59;83.78;101557.69;4914340;28;49947;-80
2022/10/05 06:00:05;;;;;;;;;4.00;4.00;;;;;14.26;82.82;101500.72;4914117;28;50106;-79
2022/10/05 06:02:44;;;;;;;;;6.00;6.00;;;;;14.29;83.31;101513.09;4914205;28;49949;-73
2022/10/05 06:05:25;;;;;;;;;6.75;4.75;;;;;14.65;83.25;101578.03;4914175;28;49804;-73
2022/10/05 06:07:52;;;;;;;;;3.75;3.75;;;;;14.65;84.12;101580.66;4913825;28;50870;-72
2022/10/05 06:10:29;;;;;;;;;5.25;4.50;;;;;14.57;83.42;101569.97;4913769;28;49927;-78
2022/10/05 06:13:01;;;;;;;;;7.25;5.50;;;;;14.04;83.77;101483.59;4913772;28;49801;-83
2022/10/05 06:15:37;;;;;;;;;5.00;5.00;;;;;14.63;83.80;101585.94;4913741;28;49747;-77
2022/10/05 06:18:16;;;;;;;;;5.25;5.00;;;;;14.11;83.83;101487.25;4913660;28;49819;-74
2022/10/05 06:21:07;;;;;;;;;7.00;6.50;;;;;14.45;84.05;101560.06;4915493;28;49629;-83
2022/10/05 06:23:53;;;;;;;;;3.25;3.25;;;;;14.63;84.21;101575.38;4914328;28;49950;-74
2022/10/05 06:26:38;;;;;;;;;5.75;5.75;;;;;14.65;84.04;101578.91;4913926;28;50180;-82
2022/10/05 06:29:10;;;;;;;;;7.75;6.00;;;;;14.69;84.29;101575.47;4908447;28;50474;-69
2022/10/05 06:32:01;;;;;;;;;6.25;6.25;;;;;14.74;83.92;101573.78;4913508;28;49869;-67
2022/10/05 06:34:35;;;;;;;;;6.25;4.75;;;;;14.82;84.12;101577.44;4913379;28;49805;-71
2022/10/05 06:37:18;;;;;;;;;7.00;6.00;;;;;14.76;83.50;101550.91;4913525;28;49974;-70
2022/10/05 06:40:06;;;;;;;;;4.50;4.50;;;;;15.00;82.33;101578.63;4907771;28;51172;-70
2022/10/05 06:42:59;;;;;;;;;4.00;4.00;;;;;15.06;83.14;101576.06;4915188;28;49774;-70
2022/10/05 06:46:04;;;;;;;;;5.00;4.00;;;;;15.10;82.47;101577.88;4911740;28;49802;-68
2022/10/05 06:48:45;;;;;;;;;4.75;4.75;;;;;15.10;82.13;101580.53;4911641;28;49653;-69
2022/10/05 06:51:22;;;;;;;;;5.50;4.00;;;;;15.00;81.57;101565.41;4873101;28;50153;-69
2022/10/05 06:54:03;;;;;;;;;6.00;6.00;;;;;15.08;82.24;101569.06;4911401;28;49841;-74
2022/10/05 06:56:40;;;;;;;;;5.00;5.00;;;;;15.13;82.31;101577.94;4912807;28;49682;-73
2022/10/05 06:59:22;;;;;;;;;6.50;6.50;;;;;15.14;82.03;101571.75;4913011;28;49835;-70
2022/10/05 07:02:04;;;;;;;;;5.00;4.25;;;;;15.14;81.99;101575.31;4913136;28;49823;-72
2022/10/05 07:05:03;;;;;;;;;6.00;4.75;;;;;15.01;82.47;101557.47;4911756;28;49754;-69
2022/10/05 07:07:44;;;;;;;;;7.50;7.25;;;;;15.14;81.47;101572.66;4912818;28;49887;-70
2022/10/05 07:10:25;;;;;;;;;7.50;6.25;;;;;15.15;81.78;101577.09;4913141;28;49724;-69
2022/10/05 07:13:03;;;;;;;;;6.00;4.75;;;;;15.17;82.18;101583.31;4895800;28;51528;-69
2022/10/05 07:15:35;;;;;;;;;6.75;4.75;;;;;14.98;82.27;101546.88;4913205;28;49819;-70
2022/10/05 07:18:13;;;;;;;;;7.00;5.25;;;;;15.11;82.13;101571.72;4913193;28;49992;-73
2022/10/05 07:20:48;;;;;;;;;6.25;6.25;;;;;15.21;82.23;101578.03;4913245;28;49821;-69
2022/10/05 07:23:23;;;;;;;;;6.75;6.00;;;;;15.23;81.80;101589.53;4913101;28;49835;-71
2022/10/05 07:26:08;;;;;;;;;7.25;6.00;;;;;15.29;82.30;101594.94;4912851;28;49709;-70
2022/10/05 07:28:48;;;;;;;;;6.00;4.50;;;;;15.32;82.22;101595.84;4895591;28;49821;-69
2022/10/05 07:31:32;;;;;;;;;4.25;4.25;;;;;15.36;82.19;101591.50;4913024;28;49880;-70
2022/10/05 07:34:05;;;;;;;;;5.00;5.00;;;;;15.44;81.61;101606.63;4906840;28;51568;-71
2022/10/05 07:40:10;;;;;;;;;5.00;5.00;;;;;15.26;81.29;101555.22;4913069;28;50041;-71
2022/10/05 07:43:13;;;;;;;;;4.50;4.50;;;;;15.55;81.43;101612.06;4912920;28;50255;-70
2022/10/05 07:46:11;;;;;;;;;4.75;4.75;;;;;15.57;81.04;101606.78;4912727;28;50002;-70
2022/10/05 07:49:04;;;;;;;;;5.50;5.50;;;;;15.58;81.30;101619.16;4859445;28;49995;-70
2022/10/05 07:51:32;;;;;;;;;7.00;6.00;;;;;15.70;80.65;101620.25;4912633;28;50125;-73
2022/10/05 07:54:13;;;;;;;;;5.50;4.00;;;;;15.78;80.66;101623.00;4912729;28;49724;-72
2022/10/05 07:56:55;;;;;;;;;4.00;3.00;;;;;15.76;80.26;101585.03;4912436;28;49728;-71
2022/10/05 07:59:42;;;;;;;;;4.00;2.75;;;;;16.12;80.07;101621.66;4912387;28;49676;-72
2022/10/05 08:02:21;;;;;;;;;0.25;0.25;;;;;15.51;79.46;101488.50;4912694;28;49848;-77
2022/10/05 08:04:59;;;;;;;;;4.25;4.25;;;;;16.46;78.70;101638.81;4912583;28;49941;-76
2022/10/05 08:07:27;;;;;;;;;5.00;4.00;;;;;16.46;77.24;101600.81;4894702;28;52048;-76
2022/10/05 08:10:02;;;;;;;;;5.75;5.00;;;;;16.70;77.44;101622.31;4912238;28;50200;-78
2022/10/05 08:12:51;;;;;;;;;3.25;3.25;;;;;16.82;76.45;101629.50;4913692;28;49769;-75
2022/10/05 08:15:22;;;;;;;;;6.00;5.00;;;;;16.59;76.50;101570.91;4915981;28;50044;-77
2022/10/05 08:17:59;;;;;;;;;4.00;4.00;;;;;16.55;75.28;101546.13;4915556;28;50821;-76
2022/10/05 08:20:30;;;;;;;;;4.25;4.25;;;;;17.19;74.52;101624.50;4915561;28;49750;-77
2022/10/05 08:23:27;;;;;;;;;4.75;4.75;;;;;16.88;74.00;101550.84;4915456;28;50045;-77
2022/10/05 08:25:52;;;;;;;;;5.00;4.50;;;;;17.46;73.52;101622.88;4909116;28;49909;-78
2022/10/05 08:28:38;;;;;;;;;4.75;4.75;;;;;17.02;73.85;101534.16;4915155;28;49693;-77
2022/10/05 08:31:37;;;;;;;;;5.00;5.00;;;;;17.61;74.12;101616.78;4915383;28;49622;-78
2022/10/05 08:34:23;;;;;;;;;5.00;5.00;;;;;17.45;73.32;101593.69;4883242;28;49683;-77
2022/10/05 08:37:07;;;;;;;;;3.75;3.75;;;;;17.66;73.14;101620.38;4912622;28;50314;-78
2022/10/05 08:40:11;;;;;;;;;7.00;5.00;;;;;17.68;73.00;101612.41;4915137;28;50457;-78
2022/10/05 08:43:05;;;;;;;;;8.00;3.75;;;;;17.68;72.76;101612.41;4915312;28;49883;-78
2022/10/05 08:45:39;;;;;;;;;4.00;3.00;;;;;17.85;72.12;101625.78;4915032;28;49756;-77
2022/10/05 08:48:19;;;;;;;;;5.25;3.75;;;;;17.95;71.97;101631.16;4897488;28;50062;-76
2022/10/05 08:50:59;;;;;;;;;5.00;5.00;;;;;18.07;71.41;101624.13;4914830;28;50510;-77
2022/10/05 08:54:01;;;;;;;;;5.75;4.50;;;;;18.10;70.99;101626.78;4914906;28;49848;-76
2022/10/05 08:56:50;;;;;;;;;6.25;5.00;;;;;18.18;71.69;101627.69;4913580;28;49914;-78
2022/10/05 08:59:21;;;;;;;;;5.75;4.75;;;;;18.26;71.37;101625.97;4915096;28;49909;-76
2022/10/05 09:02:18;;;;;;;;;4.75;4.00;;;;;18.31;70.88;101641.03;4914716;28;50117;-77
2022/10/05 09:05:12;;;;;;;;;4.75;4.75;;;;;18.37;70.00;101640.16;4914758;28;49954;-77
2022/10/05 09:08:01;;;;;;;;;5.00;4.75;;;;;18.43;69.75;101641.94;4914703;28;49918;-77
2022/10/05 09:10:56;;;;;;;;;5.00;3.75;;;;;18.52;70.09;101639.31;4915222;28;49830;-76
2022/10/05 09:13:49;;;;;;;;;5.25;5.00;;;;;18.55;69.77;101642.00;4911591;28;49984;-75
2022/10/05 09:16:23;;;;;;;;;5.25;4.00;;;;;18.64;70.16;101639.34;4914689;28;49957;-75
2022/10/05 09:19:06;;;;;;;;;5.00;5.00;;;;;18.69;69.26;101637.59;4914695;28;49776;-75
2022/10/05 09:21:42;;;;;;;;;4.00;4.00;;;;;18.78;69.27;101639.38;4914873;28;50174;-74
2022/10/05 09:24:13;;;;;;;;;8.50;6.50;;;;;18.83;69.68;101637.63;4908010;28;49827;-74
2022/10/05 09:27:00;;;;;;;;;4.25;4.25;;;;;18.94;69.32;101634.97;4914535;28;49780;-75
2022/10/05 09:30:02;;;;;;;;;3.75;3.25;;;;;19.03;66.97;101634.97;4914608;28;49820;-74
2022/10/05 09:32:46;;;;;;;;;6.50;5.00;;;;;19.08;68.04;101630.53;4897406;28;49845;-75
2022/10/05 09:35:59;;;;;;;;;5.50;5.50;;;;;18.96;67.07;101587.97;4914202;28;51133;-75
2022/10/05 09:39:06;;;;;;;;;5.75;4.00;;;;;19.09;66.60;101606.56;4913880;28;49630;-74
2022/10/05 09:41:44;;;;;;;;;2.75;2.75;;;;;18.97;63.66;101585.28;4914304;28;49854;-75
2022/10/05 09:44:35;;;;;;;;;3.00;3.00;;;;;19.34;64.59;101644.72;4914886;28;49807;-76
2022/10/05 09:47:40;;;;;;;;;3.75;3.75;;;;;19.43;64.86;101643.81;4903138;28;50701;-74
2022/10/05 09:50:14;;;;;;;;;5.00;4.00;;;;;19.55;66.22;101640.22;4914180;28;49782;-73
2022/10/05 09:53:09;;;;;;;;;4.00;3.00;;;;;19.56;66.17;101636.72;4914295;28;49755;-74
2022/10/05 09:55:47;;;;;;;;;4.25;3.00;;;;;19.36;62.76;101610.97;4914166;28;49804;-74
2022/10/05 09:58:36;;;;;;;;;4.25;4.25;;;;;19.49;63.36;101632.25;4896863;28;52653;-73
2022/10/05 10:01:05;;;;;;;;;2.25;2.25;;;;;19.68;62.89;101644.66;4914049;28;50072;-78
2022/10/05 10:04:06;;;;;;;;;3.75;3.75;;;;;19.33;62.92;101562.19;4914159;28;49870;-76
2022/10/05 10:06:38;;;;;;;;;3.00;3.00;;;;;19.85;61.82;101641.94;4910371;28;49854;-77
2022/10/05 10:09:26;;;;;;;;;3.00;3.00;;;;;19.82;61.41;101648.19;4911531;28;50074;-78
2022/10/05 10:12:00;;;;;;;;;4.75;4.75;;;;;19.83;59.22;101643.75;4898390;28;49800;-76
2022/10/05 10:15:04;;;;;;;;;4.25;4.00;;;;;19.85;61.96;101652.59;4896265;28;49949;-77
2022/10/05 10:17:35;;;;;;;;;5.00;4.00;;;;;19.87;59.82;101642.81;4915776;28;49851;-79
2022/10/05 10:20:32;;;;;;;;;3.75;3.75;;;;;19.53;59.75;101578.97;4918794;28;50772;-76
2022/10/05 10:23:34;;;;;;;;;8.00;7.75;;;;;19.96;62.00;101630.34;4915796;28;49828;-72
2022/10/05 10:26:15;;;;;;;;;12.50;8.50;;;;;19.99;59.40;101619.69;4913755;28;49762;-73
2022/10/05 10:29:01;;;;;;;;;6.50;5.00;;;;;20.02;59.91;101624.13;4914020;28;49921;-70
2022/10/05 10:31:29;;;;;;;;;7.75;7.00;;;;;20.00;59.77;101616.13;4913533;28;50094;-69
2022/10/05 10:34:16;;;;;;;;;6.75;6.00;;;;;20.05;60.57;101616.09;4913600;28;50027;-71
2022/10/05 10:37:12;;;;;;;;;7.00;7.00;;;;;19.55;59.93;101534.59;4913151;28;49754;-79
2022/10/05 10:40:01;;;;;;;;;12.75;12.00;;;;;20.12;60.83;101624.97;4911631;28;49624;-72
2022/10/05 10:42:29;;;;;;;;;30.25;29.25;;;;;20.08;60.23;101616.13;4913182;28;51251;-73
2022/10/05 10:44:57;;;;;;;;;5.25;5.25;;;;;20.07;60.79;101616.97;4913767;28;49776;-70
2022/10/05 10:47:32;;;;;;;;;4.00;4.00;;;;;20.17;59.39;101610.72;4911228;28;50489;-75
2022/10/05 10:50:16;;;;;;;;;6.25;6.25;;;;;20.26;59.61;101608.00;4913690;28;49960;-76
2022/10/05 10:53:01;;;;;;;;;7.75;7.00;;;;;20.40;60.10;101599.94;4895796;28;50936;-75
2022/10/05 10:55:36;;;;;;;;;11.50;11.25;;;;;20.58;58.27;101594.50;4913441;28;49996;-76
2022/10/05 10:58:30;;;;;;;;;11.25;10.75;;;;;20.72;59.39;101588.16;4913309;28;49886;-72
2022/10/05 11:01:31;;;;;;;;;11.75;11.75;;;;;20.61;58.72;101572.25;4900243;28;49771;-77
2022/10/05 11:03:56;;;;;;;;;7.50;6.00;;;;;20.70;57.73;101577.50;4908780;28;50674;-75
2022/10/05 11:06:56;;;;;;;;;10.50;10.00;;;;;20.58;57.92;101578.50;4913145;28;49797;-78
2022/10/05 11:09:31;;;;;;;;;9.75;9.75;;;;;20.47;59.82;101558.13;4913256;28;49797;-74
2022/10/05 11:12:30;;;;;;;;;8.50;7.25;;;;;20.40;59.03;101570.59;4914250;28;49739;-78
2022/10/05 11:15:03;;;;;;;;;6.50;6.50;;;;;20.28;59.20;101560.91;4912832;28;49863;-75
2022/10/05 11:17:47;;;;;;;;;5.50;5.50;;;;;20.15;60.22;101551.19;4907607;28;49906;-75
2022/10/05 11:20:18;;;;;;;;;9.50;6.50;;;;;20.07;60.50;101539.69;4913145;28;49632;-74
2022/10/05 11:23:08;;;;;;;;;3.50;3.50;;;;;20.01;60.88;101539.75;4889163;28;50349;-73
2022/10/05 11:26:03;;;;;;;;;4.00;4.00;;;;;19.28;60.80;101445.03;4912365;28;49763;-73
2022/10/05 11:29:29;;;;;;;;;13.00;12.00;;;;;19.49;60.99;101502.63;4873143;28;49946;-73
2022/10/05 11:32:20;;;;;;;;;6.25;6.00;;;;;19.80;61.45;101542.53;4853204;29;50009;-76
2022/10/05 11:35:15;;;;;;;;;1.25;1.25;;;;;19.77;62.24;101546.06;4852946;29;49911;-73
2022/10/05 11:37:52;;;;;;;;;6.75;6.00;;;;;19.68;62.12;101515.00;4911784;28;49856;-73
2022/10/05 11:40:51;;;;;;;;;9.25;7.75;;;;;19.90;62.00;101544.25;4912612;28;49970;-73
2022/10/05 11:43:51;;;;;;;;;10.50;8.50;;;;;20.00;61.81;101546.84;4907424;28;50135;-73
2022/10/05 11:46:32;;;;;;;;;3.50;3.50;;;;;20.17;61.41;101543.16;4912665;28;49964;-74
2022/10/05 11:49:21;;;;;;;;;3.25;3.25;;;;;19.91;61.10;101479.41;4914860;28;50041;-74
2022/10/05 11:52:15;;;;;;;;;7.00;6.75;;;;;19.71;60.52;101439.56;4925556;28;49649;-75
2022/10/05 11:54:51;;;;;;;;;1.25;1.25;;;;;20.39;60.61;101541.28;4913507;28;49758;-74
2022/10/05 11:57:37;;;;;;;;;2.00;2.00;;;;;20.44;60.88;101536.81;4919743;28;49872;-73
2022/10/05 12:00:19;;;;;;;;;4.75;4.75;;;;;20.53;60.75;101536.75;4915576;28;51085;-74
2022/10/05 12:03:09;;;;;;;;;6.50;5.25;;;;;20.58;60.35;101546.47;4915634;28;49837;-74
2022/10/05 12:05:49;;;;;;;;;2.00;1.75;;;;;20.60;60.19;101537.59;4915927;28;49747;-72
2022/10/05 12:08:15;;;;;;;;;18.50;17.50;;;;;20.61;60.75;101536.69;4918587;28;49902;-75
2022/10/05 12:11:02;;;;;;;;;11.25;9.50;;;;;20.61;60.80;101529.56;4927838;28;52220;-73
2022/10/05 12:13:57;;;;;;;;;14.75;13.25;;;;;20.65;61.23;101536.63;4924694;28;49831;-73
2022/10/05 12:16:48;;;;;;;;;19.00;17.00;;;;;20.75;60.74;101527.69;4925711;28;49688;-75
2022/10/05 12:19:20;;;;;;;;;12.50;12.50;;;;;20.85;60.41;101533.81;4924398;28;49798;-73
2022/10/05 12:21:55;;;;;;;;;5.50;5.50;;;;;20.61;61.66;101488.66;4920575;28;49677;-73
2022/10/05 12:24:44;;;;;;;;;3.50;3.50;;;;;20.70;60.49;101457.44;4926819;28;49363;-75
2022/10/05 12:27:19;;;;;;;;;3.75;3.75;;;;;21.36;61.03;101519.06;4931506;28;49420;-73
2022/10/05 12:30:17;;;;;;;;;21.50;19.00;;;;;20.69;57.35;101374.75;4930792;28;49732;-73
2022/10/05 12:33:12;;;;;;;;;18.00;17.75;;;;;21.16;56.72;101424.91;4914277;28;49822;-75
2022/10/05 12:35:41;;;;;;;;;15.00;14.25;;;;;21.97;56.44;101520.03;4917651;28;49818;-75
2022/10/05 12:38:27;;;;;;;;;17.75;17.25;;;;;22.23;56.79;101514.34;4914889;28;49735;-74
2022/10/05 12:41:03;;;;;;;;;14.50;13.00;;;;;22.45;57.02;101523.81;4914729;28;49889;-74
2022/10/05 12:43:42;;;;;;;;;8.50;8.50;;;;;21.97;56.61;101410.44;4914957;28;50818;-73
2022/10/05 12:46:24;;;;;;;;;7.00;7.00;;;;;22.75;56.17;101521.53;4915042;28;49771;-74
2022/10/05 12:49:03;;;;;;;;;9.00;7.75;;;;;22.37;54.95;101428.53;4914957;28;49915;-74
2022/10/05 12:51:48;;;;;;;;;9.00;7.50;;;;;23.07;54.35;101524.56;4915185;28;49704;-74
2022/10/05 12:54:33;;;;;;;;;3.50;3.50;;;;;22.79;55.18;101464.34;4911133;28;51588;-75
2022/10/05 12:57:11;;;;;;;;;6.50;5.50;;;;;23.03;54.58;101488.00;4897412;28;50255;-74
2022/10/05 12:59:44;;;;;;;;;9.50;8.00;;;;;23.21;53.85;101500.16;4921148;28;49731;-74
2022/10/05 13:02:37;;;;;;;;;4.00;4.00;;;;;23.34;53.02;101524.91;4908880;28;49928;-73
2022/10/05 13:05:09;;;;;;;;;2.75;2.75;;;;;23.13;53.97;101502.09;4914428;28;49992;-74
2022/10/05 13:07:44;;;;;;;;;23.50;19.75;;;;;23.23;53.10;101535.84;4915010;28;49936;-74
2022/10/05 13:10:47;;;;;;;;;9.00;7.00;;;;;23.35;53.08;101538.25;4914813;28;50205;-75
2022/10/05 13:13:15;;;;;;;;;6.75;6.75;;;;;23.56;53.44;101528.06;4905285;28;49957;-69
2022/10/05 13:15:46;;;;;;;;;11.50;11.50;;;;;23.76;53.36;101535.72;4903544;28;50498;-69
2022/10/05 13:18:22;;;;;;;;;5.50;4.25;;;;;23.81;54.50;101515.91;4901701;28;49989;-69
2022/10/05 13:21:04;;;;;;;;;13.50;10.50;;;;;23.93;54.99;101526.38;4920712;28;49531;-69
2022/10/05 13:23:51;;;;;;;;;6.25;6.00;;;;;23.98;52.92;101529.81;4928219;28;49304;-68
2022/10/05 13:26:30;;;;;;;;;3.00;3.00;;;;;23.92;51.57;101515.66;4924666;28;51489;-70
2022/10/05 13:29:26;;;;;;;;;2.75;2.50;;;;;23.96;50.85;101509.34;4929979;28;49494;-71
2022/10/05 13:31:56;;;;;;;;;3.75;2.75;;;;;24.14;51.41;101529.50;4925789;28;49728;-68
2022/10/05 13:34:30;;;;;;;;;8.00;6.25;;;;;24.09;51.42;101528.69;4931818;28;49666;-68
2022/10/05 13:37:11;;;;;;;;;3.75;2.75;;;;;24.31;51.54;101535.34;4931316;28;49865;-70
2022/10/05 13:39:59;;;;;;;;;5.00;4.50;;;;;24.31;52.14;101547.84;4931576;28;49426;-68
2022/10/05 13:42:31;;;;;;;;;3.75;3.75;;;;;24.27;50.24;101547.06;4931531;28;49390;-69
2022/10/05 13:45:03;;;;;;;;;4.50;4.50;;;;;24.03;51.10;101510.06;4931553;28;49429;-67
2022/10/05 13:48:01;;;;;;;;;4.50;4.50;;;;;24.16;52.06;101530.34;4924864;28;49851;-68
2022/10/05 13:50:36;;;;;;;;;11.25;11.25;;;;;24.11;52.61;101532.22;4931010;28;49398;-68
2022/10/05 13:53:15;;;;;;;;;8.50;3.25;;;;;24.06;51.76;101526.09;4928168;28;50104;-69
2022/10/05 13:55:56;;;;;;;;;5.50;5.50;;;;;23.92;51.64;101529.94;4913820;28;49951;-67
2022/10/05 13:58:44;;;;;;;;;4.00;4.00;;;;;23.89;53.73;101522.00;4926120;28;50611;-68
2022/10/05 14:01:14;;;;;;;;;2.75;2.75;;;;;23.79;54.47;101528.47;4915500;28;50329;-68
2022/10/05 14:03:40;;;;;;;;;4.00;4.00;;;;;23.78;53.07;101529.38;4931355;28;49854;-70
2022/10/05 14:06:26;;;;;;;;;6.50;5.50;;;;;23.64;56.61;101516.28;4931239;28;49820;-71
2022/10/05 14:08:53;;;;;;;;;6.75;6.75;;;;;23.57;52.72;101506.56;4922319;28;49965;-70
2022/10/05 14:11:35;;;;;;;;;5.00;4.00;;;;;23.59;53.14;101514.63;4922893;28;49648;-68
2022/10/05 14:14:00;;;;;;;;;5.75;4.00;;;;;23.72;52.69;101529.50;4920828;28;49648;-69
2022/10/05 14:16:26;;;;;;;;;2.75;2.75;;;;;23.80;52.88;101535.59;4915579;28;49623;-70
2022/10/05 14:19:03;;;;;;;;;4.00;4.00;;;;;23.80;54.01;101521.31;4927451;28;50343;-67
2022/10/05 14:21:31;;;;;;;;;4.75;4.00;;;;;23.54;52.52;101495.91;4916443;28;49670;-68
2022/10/05 14:24:41;;;;;;;;;3.50;2.75;;;;;23.64;52.78;101527.03;4929903;28;49445;-68
2022/10/05 14:27:28;;;;;;;;;8.00;6.50;;;;;23.51;54.23;101524.56;4901543;28;49679;-68
2022/10/05 14:30:09;;;;;;;;;5.00;5.00;;;;;23.24;53.54;101513.50;4930209;28;50595;-67
2022/10/05 14:32:55;;;;;;;;;7.00;6.50;;;;;22.99;53.68;101501.50;4930351;28;49350;-68
2022/10/05 14:35:24;;;;;;;;;6.00;6.00;;;;;23.11;53.89;101528.94;4930366;28;49270;-68
2022/10/05 14:37:52;;;;;;;;;5.50;5.50;;;;;23.13;54.08;101534.25;4922893;28;49815;-68
2022/10/05 14:40:36;;;;;;;;;4.00;4.00;;;;;23.13;53.85;101543.16;4894693;28;51347;-69
2022/10/05 14:43:19;;;;;;;;;7.75;5.75;;;;;23.19;54.90;101536.81;4915202;28;50142;-68
2022/10/05 14:45:55;;;;;;;;;7.00;6.00;;;;;22.67;54.50;101469.91;4922583;28;49689;-68
2022/10/05 14:48:21;;;;;;;;;5.25;5.25;;;;;22.86;55.22;101519.56;4907133;28;49948;-69
2022/10/05 14:50:53;;;;;;;;;8.25;7.25;;;;;22.93;54.87;101539.97;4911433;28;49919;-69
2022/10/05 14:53:23;;;;;;;;;11.00;10.00;;;;;22.40;54.84;101466.84;4907132;28;49722;-69
2022/10/05 14:56:07;;;;;;;;;7.50;6.50;;;;;22.77;57.34;101541.09;4925014;28;49386;-69
2022/10/05 14:58:56;;;;;;;;;10.00;7.25;;;;;22.66;56.03;101535.94;4930460;28;49535;-69
2022/10/05 15:01:26;;;;;;;;;7.25;6.25;;;;;22.60;55.38;101536.06;4929666;28;49764;-68
2022/10/05 15:04:01;;;;;;;;;5.00;5.00;;;;;22.55;56.44;101527.22;4929969;28;49206;-69
2022/10/05 15:06:38;;;;;;;;;7.50;7.50;;;;;22.37;56.65;101498.97;4928420;28;49509;-69
2022/10/05 15:09:41;;;;;;;;;6.00;6.00;;;;;22.53;56.57;101537.06;4919589;28;49858;-71
2022/10/05 15:12:07;;;;;;;;;20.75;17.00;;;;;22.27;56.18;101510.72;4925470;28;49719;-72
2022/10/05 15:15:00;;;;;;;;;7.25;7.25;;;;;22.53;56.24;101534.38;4915281;28;49846;-72
2022/10/05 15:17:35;;;;;;;;;6.75;6.75;;;;;22.48;55.34;101507.69;4906428;28;49683;-73
2022/10/05 15:20:18;;;;;;;;;15.50;15.50;;;;;22.81;55.39;101557.09;4913034;28;49763;-71
2022/10/05 15:23:04;;;;;;;;;8.50;7.50;;;;;22.89;56.34;101551.66;4913600;28;50251;-73
2022/10/05 15:26:03;;;;;;;;;9.50;9.00;;;;;22.91;55.52;101549.81;4904664;28;49893;-74
2022/10/05 15:28:47;;;;;;;;;11.00;10.25;;;;;22.85;54.56;101529.38;4927753;28;49835;-71
2022/10/05 15:31:24;;;;;;;;;5.50;5.50;;;;;22.99;55.07;101547.91;4922370;28;49720;-72
2022/10/05 15:34:09;;;;;;;;;9.75;6.50;;;;;22.93;54.49;101552.47;4924745;28;49965;-70
2022/10/05 15:37:14;;;;;;;;;10.00;7.50;;;;;22.55;54.71;101503.13;4930371;28;49575;-75
2022/10/05 15:39:51;;;;;;;;;9.00;7.50;;;;;22.76;56.25;101550.94;4912667;28;49451;-75
2022/10/05 15:42:23;;;;;;;;;5.75;5.75;;;;;22.72;55.85;101559.06;4897660;28;50085;-82
2022/10/05 15:44:49;;;;;;;;;6.50;6.50;;;;;22.70;56.21;101560.88;4897587;28;51289;-80
2022/10/05 15:47:36;;;;;;;;;;;;;;;;;;;;;
2022/10/05 15:50:17;;;;;;;;;6.75;6.25;;;;;22.60;55.42;101568.19;4929124;28;71419;-77
2022/10/05 15:52:49;;;;;;;;;6.00;6.00;;;;;22.51;56.59;101554.94;4923395;28;50001;-78
2022/10/05 15:55:24;;;;;;;;;7.50;6.00;;;;;22.53;57.55;101569.16;4906549;28;52279;-82
2022/10/05 15:58:18;;;;;;;;;6.75;6.75;;;;;22.00;57.10;101491.50;4906916;28;50197;-81
2022/10/05 16:00:53;;;;;;;;;7.00;6.00;;;;;21.91;57.09;101488.06;4926255;28;49783;-80
2022/10/05 16:03:18;;;;;;;;;5.25;5.00;;;;;22.43;58.08;101580.91;4932456;28;49453;-73
2022/10/05 16:09:01;;;;;;;;;7.00;7.00;;;;;22.34;57.86;101595.31;4932903;28;49451;-77
2022/10/05 16:12:05;;;;;;;;;5.50;5.50;;;;;22.05;57.98;101550.22;4909121;28;49284;-77
2022/10/05 16:15:15;;;;;;;;;8.00;6.25;;;;;22.34;58.75;101605.13;4932662;28;49701;-72
2022/10/05 16:17:53;;;;;;;;;5.75;5.75;;;;;21.81;58.72;101534.50;4928935;28;49412;-77
2022/10/05 16:20:54;;;;;;;;;5.50;5.50;;;;;22.18;57.85;101608.00;4921588;28;49846;-68
2022/10/05 16:23:47;;;;;;;;;5.25;5.00;;;;;22.15;59.54;101610.72;4927828;28;49357;-80
2022/10/05 16:26:15;;;;;;;;;5.00;5.00;;;;;22.01;60.75;101596.66;4922299;28;49863;-79
2022/10/05 16:29:04;;;;;;;;;9.50;6.75;;;;;21.86;59.10;101591.47;4926866;28;51871;-82
2022/10/05 16:31:46;;;;;;;;;4.50;4.50;;;;;22.03;59.51;101631.38;4904164;29;49364;-82
2022/10/05 16:34:48;;;;;;;;;6.25;6.00;;;;;21.60;60.09;101560.59;4928531;28;49594;-77
2022/10/05 16:37:22;;;;;;;;;6.75;5.75;;;;;21.66;60.07;101571.22;4923302;28;49728;-77
2022/10/05 16:40:04;;;;;;;;;5.50;5.50;;;;;21.96;60.18;101638.59;4903526;28;51329;-80
2022/10/05 16:42:56;;;;;;;;;4.75;4.00;;;;;21.92;60.56;101636.88;4914323;28;50265;-76
2022/10/05 16:45:42;;;;;;;;;7.75;6.00;;;;;21.84;60.75;101641.41;4931776;28;49441;-73
2022/10/05 16:48:23;;;;;;;;;8.00;8.00;;;;;21.85;60.96;101651.19;4932127;28;49678;-74
2022/10/05 16:51:22;;;;;;;;;7.50;7.00;;;;;21.48;61.80;101598.16;4931591;28;50454;-80
2022/10/05 16:54:03;;;;;;;;;6.75;6.75;;;;;21.61;60.11;101633.63;4913691;28;49614;-86
2022/10/05 16:56:39;;;;;;;;;7.00;6.75;;;;;21.54;60.70;101621.28;4910640;28;49393;-76
2022/10/05 16:59:35;;;;;;;;;7.25;7.00;;;;;21.73;60.95;101668.25;4932405;28;49384;-77
2022/10/05 17:02:07;;;;;;;;;9.25;7.00;;;;;21.70;61.76;101662.94;4930592;28;49454;-75
2022/10/05 17:04:45;;;;;;;;;6.75;5.50;;;;;21.34;61.20;101602.78;4931626;28;49463;-76
2022/10/05 17:07:30;;;;;;;;;7.75;6.25;;;;;21.62;61.26;101663.03;4925175;28;49413;-80
2022/10/05 17:10:14;;;;;;;;;6.75;6.25;;;;;21.58;61.39;101665.75;4898958;28;49634;-81
2022/10/05 17:12:50;;;;;;;;;6.00;6.00;;;;;21.60;62.69;101664.81;4931550;28;49628;-70
2022/10/05 17:15:31;;;;;;;;;6.25;5.00;;;;;21.35;62.26;101637.47;4905243;28;49769;-73
2022/10/05 17:18:28;;;;;;;;;8.00;7.00;;;;;21.59;62.27;101668.38;4917405;28;49655;-74
2022/10/05 17:20:56;;;;;;;;;7.00;5.50;;;;;21.62;61.66;101687.09;4917787;28;49856;-76
2022/10/05 17:23:32;;;;;;;;;4.00;4.00;;;;;21.31;62.85;101646.41;4927902;28;49841;-75
2022/10/05 17:26:45;;;;;;;;;9.00;9.00;;;;;21.18;61.67;101641.16;4931593;28;49358;-72
2022/10/05 17:29:46;;;;;;;;;9.75;8.25;;;;;21.43;63.09;101712.22;4912059;28;49493;-75
2022/10/05 17:32:14;;;;;;;;;25.75;25.25;;;;;21.42;63.73;101719.34;4929052;28;49442;-74
2022/10/05 17:34:59;;;;;;;;;32.25;27.75;;;;;21.41;63.49;101719.31;4926384;28;49878;-73
2022/10/05 17:37:42;;;;;;;;;11.75;11.75;;;;;21.34;62.83;101718.50;4915407;28;49818;-73
2022/10/05 17:40:30;;;;;;;;;8.50;8.50;;;;;21.33;63.62;101729.22;4908205;28;49873;-74
2022/10/05 17:43:03;;;;;;;;;13.25;10.75;;;;;20.92;63.48;101663.63;4914330;28;49445;-77
2022/10/05 17:45:28;;;;;;;;;12.50;12.50;;;;;21.25;62.97;101704.31;4929659;28;49940;-76
2022/10/05 17:48:07;;;;;;;;;18.50;18.50;;;;;21.58;63.22;101754.78;4930564;28;49762;-76
2022/10/05 17:56:22;;;;;;;;;12.75;10.75;;;;;21.17;62.06;101739.09;4924315;28;49855;-75
2022/10/05 17:58:53;;;;;;;;;10.50;7.75;;;;;21.32;62.52;101775.47;4922849;28;49885;-74
2022/10/05 18:01:39;;;;;;;;;15.25;13.00;;;;;20.88;62.28;101719.72;4916683;28;49857;-75
2022/10/05 18:04:10;;;;;;;;;6.00;6.00;;;;;21.16;63.18;101774.69;4913823;28;49877;-78
2022/10/05 18:06:43;;;;;;;;;9.25;9.25;;;;;21.05;62.51;101766.75;4913213;28;50136;-77
2022/10/05 18:09:20;;;;;;;;;9.00;7.50;;;;;21.20;63.18;101792.44;4907870;28;49851;-76
2022/10/05 18:12:11;;;;;;;;;9.50;8.75;;;;;21.15;62.82;101794.28;4913802;28;49955;-73
2022/10/05 18:14:58;;;;;;;;;5.00;5.00;;;;;21.12;63.14;101802.28;4879145;29;49941;-76
2022/10/05 18:17:44;;;;;;;;;9.50;8.00;;;;;21.07;62.59;101796.13;4907658;28;50288;-73
2022/10/05 18:20:28;;;;;;;;;5.00;5.00;;;;;21.08;63.13;101808.56;4911782;28;49755;-73
2022/10/05 18:23:24;;;;;;;;;7.25;5.75;;;;;20.49;63.05;101711.03;4911834;28;50153;-74
2022/10/05 18:26:04;;;;;;;;;6.25;5.00;;;;;20.91;64.25;101797.97;4911657;28;50041;-75
2022/10/05 18:28:48;;;;;;;;;7.75;7.75;;;;;21.01;63.33;101825.50;4912290;28;50421;-74
2022/10/05 18:31:37;;;;;;;;;9.25;9.25;;;;;21.03;65.05;101831.72;4913107;28;49586;-74
2022/10/05 18:34:09;;;;;;;;;9.00;8.00;;;;;20.91;63.17;101810.44;4913421;28;49681;-75